Knittelfeld, Austria
Current Conditions -  °F | °C
As of 3:20 PM on Thursday 27 Nov 2014 (Local Time) from LOXZ Reporting Station
Broken Clouds Broken Clouds  
Wind Chill: 41°   Ceiling: 2700
Heat Index: 41°   Visibility: 9mi
Dew Point: 34°   Wind: 2mph
Humidity: 76%   Direction: 10°N
Pressure: 29.91"   Gusts: NA
Location:  47.22°N, 14.83°E
Report Text: LOXZ 271320Z 01002KT 15KM FEW016ST BKN027SC 05/01 Q1013 NOSIGRMK BKN
Loading
Personal Weather Stations






























Interactive Weather Map New forecast layout! Learn more

10-Day Weather Forecast

Advertisements
Track Severe Weather on mobile